Main page
METAR-TAF:

METAR-TAF

Airports :

Nea Anchialos National Airport

Volos, Greece

latitude: 39-13N, longitude: 022-48E, elevation: 25 m

Current weather observation

The report was made 1 hour and 1 minutes ago, at 20:50 UTC
Wind 4 kt from the Southwest
Temperature 19°C
Humidity 78%
Pressure 1010 hPa
Visibility 10 km or more
no clouds below 1500 m and no cumulonimbus

METAR: LGBL 172050Z 23004KT CAVOK 19/15 Q1010

Time: 00:51 (21:51 UTC)

Forecast

The report was made 1 hour and 51 minutes ago, at 20:00 UTC
Forecast valid from 17 at 21 UTC to 18 at 06 UTC
Wind 7 kt from the West
Visibility 10 km or more
Few clouds at a height of 2500 ft

TAF: LGBL 172000Z 1721/1806 28007KT 9999 FEW025

Weather observations and forecasts of more than 4000 airports (METAR and TAF reports).

The available stations are represented by yellow and red dots on the map.

Hover mouse over dot to see the name of the station.

Then click to see weather observations and forecasts.

To change the map : click on the green buttons with a black cross to zoom in, on the green button with a dash to zoom out, or on the green arrows for adjacent maps.


METAR-TAF: